createdAt,value
2018-09-03T00:01:23.363Z,4.17
2018-09-03T00:03:27.545Z,3.87
2018-09-03T00:05:31.767Z,4.37
2018-09-03T00:07:35.964Z,4.27
2018-09-03T00:09:41.624Z,4.70
2018-09-03T00:11:45.955Z,4.47
2018-09-03T00:13:50.193Z,4.30
2018-09-03T00:15:54.845Z,4.40
2018-09-03T00:17:59.057Z,4.33
2018-09-03T00:20:03.300Z,5.20
2018-09-03T00:22:07.734Z,4.00
2018-09-03T00:24:11.917Z,4.53
2018-09-03T00:26:16.072Z,4.43
2018-09-03T00:28:20.285Z,4.23
2018-09-03T00:30:24.542Z,4.53
2018-09-03T00:32:33.940Z,5.27
2018-09-03T00:34:43.190Z,4.57
2018-09-03T00:36:52.484Z,4.67
2018-09-03T00:39:01.826Z,4.77
2018-09-03T00:41:11.288Z,3.90
2018-09-03T00:43:20.545Z,5.33
2018-09-03T00:45:29.846Z,4.50
2018-09-03T00:47:34.078Z,5.23
2018-09-03T00:49:38.289Z,4.90
2018-09-03T00:51:42.478Z,4.70
2018-09-03T00:53:46.755Z,6.33
2018-09-03T00:55:50.954Z,4.10
2018-09-03T00:57:55.118Z,4.70
2018-09-03T00:59:59.271Z,5.17
2018-09-03T01:02:03.776Z,4.87
2018-09-03T01:04:08.003Z,4.47
2018-09-03T01:06:12.176Z,5.27
2018-09-03T01:08:16.478Z,5.20
2018-09-03T01:10:20.656Z,5.00
2018-09-03T01:12:24.824Z,4.43
2018-09-03T01:14:29.055Z,4.50
2018-09-03T01:16:33.223Z,4.90
2018-09-03T01:18:45.157Z,6.00
2018-09-03T01:20:49.483Z,5.93
2018-09-03T01:22:53.659Z,5.23
2018-09-03T01:24:57.891Z,5.17
2018-09-03T01:27:02.101Z,5.73
2018-09-03T01:29:06.362Z,5.13
2018-09-03T01:31:10.546Z,5.30
2018-09-03T01:33:14.814Z,5.07
2018-09-03T01:35:19.046Z,5.20
2018-09-03T01:37:23.213Z,5.33
2018-09-03T01:39:27.435Z,5.60
2018-09-03T01:41:31.626Z,5.00
2018-09-03T01:43:35.819Z,6.23
2018-09-03T01:45:48.435Z,5.83
2018-09-03T01:47:53.119Z,6.70
2018-09-03T01:49:57.303Z,4.90
2018-09-03T01:52:01.501Z,5.57
2018-09-03T01:54:05.755Z,5.57
2018-09-03T01:56:10.022Z,5.13
2018-09-03T01:58:14.201Z,4.90
2018-09-03T02:00:18.477Z,5.97
2018-09-03T02:02:22.670Z,6.00
2018-09-03T02:04:26.865Z,5.07
2018-09-03T02:06:31.035Z,7.23
2018-09-03T02:08:35.268Z,5.13
2018-09-03T02:10:39.516Z,7.30
2018-09-03T02:12:43.739Z,5.70
2018-09-03T02:14:47.914Z,5.40
2018-09-03T02:16:52.134Z,5.97
2018-09-03T02:18:56.371Z,6.27
2018-09-03T02:21:00.584Z,6.80
2018-09-03T02:23:04.825Z,6.43
2018-09-03T02:25:09.092Z,6.77
2018-09-03T02:27:13.362Z,6.03
2018-09-03T02:29:17.567Z,5.87
2018-09-03T02:31:21.794Z,7.00
2018-09-03T02:33:25.997Z,7.00
2018-09-03T02:35:30.214Z,5.97
2018-09-03T02:37:34.442Z,6.00
2018-09-03T02:39:38.600Z,6.50
2018-09-03T02:41:42.811Z,6.40
2018-09-03T02:43:47.001Z,6.60
2018-09-03T02:45:51.159Z,7.07
2018-09-03T02:47:55.353Z,5.73
2018-09-03T02:49:59.546Z,6.70
2018-09-03T02:52:03.810Z,7.67
2018-09-03T02:54:07.997Z,5.73
2018-09-03T02:56:12.180Z,8.00
2018-09-03T02:58:16.347Z,7.20
2018-09-03T03:00:24.885Z,8.87
2018-09-03T03:02:29.061Z,9.37
2018-09-03T03:04:33.224Z,6.87
2018-09-03T03:06:37.391Z,6.30
2018-09-03T03:08:42.590Z,7.00
2018-09-03T03:10:46.789Z,8.03
2018-09-03T03:12:50.992Z,6.10
2018-09-03T03:14:57.454Z,7.80
2018-09-03T03:17:02.144Z,7.50
2018-09-03T03:19:06.316Z,7.87
2018-09-03T03:21:10.504Z,7.47
2018-09-03T03:23:14.716Z,11.77
2018-09-03T03:25:18.954Z,10.33
2018-09-03T03:27:23.143Z,7.13
2018-09-03T03:29:27.365Z,6.63
2018-09-03T03:31:31.626Z,9.43
2018-09-03T03:33:35.866Z,7.50
2018-09-03T03:35:40.122Z,7.50
2018-09-03T03:37:47.244Z,6.67
2018-09-03T03:39:51.448Z,8.00
2018-09-03T03:41:55.732Z,11.47
2018-09-03T03:44:00.016Z,8.70
2018-09-03T03:46:04.278Z,7.30
2018-09-03T03:48:08.448Z,8.07
2018-09-03T03:50:12.718Z,8.20
2018-09-03T03:52:17.023Z,8.23
2018-09-03T03:54:21.200Z,6.77
2018-09-03T03:56:25.400Z,9.70
2018-09-03T03:58:29.603Z,8.27
2018-09-03T04:00:33.769Z,9.43
2018-09-03T04:02:37.943Z,7.10
2018-09-03T04:04:42.114Z,8.00
2018-09-03T04:06:46.306Z,8.17
2018-09-03T04:08:50.434Z,7.97
2018-09-03T04:10:54.676Z,7.87
2018-09-03T04:13:04.018Z,9.07
2018-09-03T04:15:08.180Z,9.90
2018-09-03T04:17:12.372Z,10.43
2018-09-03T04:19:16.546Z,8.00
2018-09-03T04:21:20.687Z,9.83
2018-09-03T04:23:25.075Z,8.20
2018-09-03T04:25:29.206Z,9.60
2018-09-03T04:27:33.412Z,9.33
2018-09-03T04:29:37.560Z,10.63
2018-09-03T04:31:41.764Z,8.13
2018-09-03T04:33:46.054Z,10.90
2018-09-03T04:35:50.254Z,9.10
2018-09-03T04:37:54.426Z,9.50
2018-09-03T04:39:58.623Z,9.37
2018-09-03T04:42:02.890Z,9.60
2018-09-03T04:44:07.178Z,9.53
2018-09-03T04:46:11.375Z,12.23
2018-09-03T04:48:15.656Z,11.80
2018-09-03T04:50:19.879Z,13.70
2018-09-03T04:52:24.071Z,10.23
2018-09-03T04:54:28.313Z,12.47
2018-09-03T04:56:32.595Z,11.87
2018-09-03T04:58:37.266Z,11.33
2018-09-03T05:00:42.524Z,11.47
2018-09-03T05:02:47.350Z,12.97
2018-09-03T05:04:51.865Z,13.23
2018-09-03T05:06:56.896Z,11.37
2018-09-03T05:09:01.262Z,12.07
2018-09-03T05:11:05.554Z,10.87
2018-09-03T05:13:09.740Z,11.80
2018-09-03T05:15:13.905Z,11.17
2018-09-03T05:17:18.090Z,11.00
2018-09-03T05:19:22.378Z,11.03
2018-09-03T05:21:26.589Z,10.67
2018-09-03T05:23:30.978Z,11.73
2018-09-03T05:25:35.187Z,11.87
2018-09-03T05:27:40.967Z,13.50
2018-09-03T05:29:45.207Z,11.17
2018-09-03T05:31:49.427Z,12.07
2018-09-03T05:33:53.709Z,11.10
2018-09-03T05:35:58.218Z,9.70
2018-09-03T05:38:02.465Z,10.90
2018-09-03T05:40:07.097Z,12.28
2018-09-03T05:42:11.313Z,10.70
2018-09-03T05:44:15.495Z,12.30
2018-09-03T05:46:19.750Z,11.93
2018-09-03T05:48:23.899Z,10.53
2018-09-03T05:50:28.309Z,13.00
2018-09-03T05:52:32.493Z,11.93
2018-09-03T05:54:36.709Z,10.47
2018-09-03T05:56:40.912Z,12.53
2018-09-03T05:58:45.198Z,11.03
2018-09-03T06:00:49.406Z,11.83
2018-09-03T06:02:53.618Z,11.50
2018-09-03T06:04:57.898Z,10.53
2018-09-03T06:07:02.144Z,15.33
2018-09-03T06:09:08.982Z,11.67
2018-09-03T06:11:13.273Z,12.33
2018-09-03T06:13:17.440Z,13.77
2018-09-03T06:15:21.754Z,14.10
2018-09-03T06:17:25.999Z,12.40
2018-09-03T06:19:30.203Z,12.87
2018-09-03T06:21:34.468Z,13.47
2018-09-03T06:23:38.680Z,13.93
2018-09-03T06:25:42.856Z,11.37
2018-09-03T06:27:47.099Z,16.57
2018-09-03T06:29:51.275Z,11.70
2018-09-03T06:31:55.508Z,11.17
2018-09-03T06:33:59.720Z,12.03
2018-09-03T06:36:04.516Z,12.00
2018-09-03T06:38:08.797Z,12.77
2018-09-03T06:40:13.026Z,13.13
2018-09-03T06:42:17.339Z,13.50
2018-09-03T06:44:26.469Z,13.33
2018-09-03T06:46:30.909Z,13.30
2018-09-03T06:48:35.198Z,14.10
2018-09-03T06:50:39.365Z,14.00
2018-09-03T06:52:43.679Z,14.90
2018-09-03T06:54:47.854Z,12.30
2018-09-03T06:56:52.061Z,13.73
2018-09-03T06:58:56.724Z,14.83
2018-09-03T07:01:00.894Z,13.43
2018-09-03T07:03:05.163Z,15.73
2018-09-03T07:05:09.357Z,13.07
2018-09-03T07:07:13.527Z,13.90
2018-09-03T07:09:17.777Z,15.10
2018-09-03T07:11:21.984Z,15.53
2018-09-03T07:13:26.167Z,12.83
2018-09-03T07:15:30.351Z,15.23
2018-09-03T07:17:34.586Z,13.50
2018-09-03T07:19:38.830Z,14.23
2018-09-03T07:21:43.048Z,13.90
2018-09-03T07:23:48.335Z,13.37
2018-09-03T07:25:52.538Z,13.90
2018-09-03T07:27:56.814Z,12.67
2018-09-03T07:30:00.995Z,11.77
2018-09-03T07:32:05.631Z,13.93
2018-09-03T07:34:09.929Z,13.67
2018-09-03T07:36:14.241Z,12.70
2018-09-03T07:38:18.468Z,12.63
2018-09-03T07:40:22.670Z,13.77
2018-09-03T07:42:26.837Z,13.43
2018-09-03T07:44:31.086Z,12.37
2018-09-03T07:46:35.316Z,14.23
2018-09-03T07:48:39.615Z,11.57
2018-09-03T07:50:43.822Z,13.23
2018-09-03T07:52:48.034Z,13.07
2018-09-03T07:54:52.328Z,11.87
2018-09-03T07:56:56.503Z,13.70
2018-09-03T07:59:00.993Z,11.90
2018-09-03T08:01:05.248Z,11.17
2018-09-03T08:03:09.415Z,13.57
2018-09-03T08:05:13.881Z,11.73
2018-09-03T08:07:19.284Z,10.27
2018-09-03T08:09:23.434Z,11.47
2018-09-03T08:11:27.645Z,11.00
2018-09-03T08:13:36.952Z,11.20
2018-09-03T08:15:41.152Z,11.67
2018-09-03T08:17:45.426Z,10.27
2018-09-03T08:19:49.581Z,11.30
2018-09-03T08:21:53.899Z,9.93
2018-09-03T08:23:58.163Z,9.83
2018-09-03T08:26:02.630Z,9.83
2018-09-03T08:28:07.140Z,11.60
2018-09-03T08:30:11.420Z,10.93
2018-09-03T08:32:16.143Z,10.63
2018-09-03T08:34:20.319Z,8.70
2018-09-03T08:36:24.501Z,9.33
2018-09-03T08:38:29.130Z,10.90
2018-09-03T08:40:33.320Z,11.23
2018-09-03T08:42:37.460Z,11.13
2018-09-03T08:44:41.703Z,10.70
2018-09-03T08:46:45.914Z,9.67
2018-09-03T08:48:50.154Z,11.03
2018-09-03T08:50:54.360Z,10.97
2018-09-03T08:52:58.575Z,10.50
2018-09-03T08:55:02.806Z,10.93
2018-09-03T08:57:07.014Z,10.53
2018-09-03T08:59:11.231Z,10.43
2018-09-03T09:01:15.494Z,9.63
2018-09-03T09:03:24.716Z,10.67
2018-09-03T09:05:29.248Z,10.13
2018-09-03T09:07:33.771Z,10.80
2018-09-03T09:09:38.099Z,9.67
2018-09-03T09:11:42.345Z,9.30
2018-09-03T09:13:46.524Z,9.37
2018-09-03T09:15:50.739Z,9.20
2018-09-03T09:17:54.967Z,9.90
2018-09-03T09:19:59.345Z,11.00
2018-09-03T09:22:03.594Z,10.87
2018-09-03T09:24:07.731Z,9.60
2018-09-03T09:26:11.874Z,10.33
2018-09-03T09:28:16.104Z,9.40
2018-09-03T09:30:20.315Z,10.30
2018-09-03T09:32:24.506Z,9.63
2018-09-03T09:34:28.703Z,9.60
2018-09-03T09:36:32.880Z,9.27
2018-09-03T09:38:37.160Z,8.87
2018-09-03T09:40:41.351Z,9.80
2018-09-03T09:42:46.032Z,9.80
2018-09-03T09:44:50.190Z,9.53
2018-09-03T09:46:54.359Z,8.57
2018-09-03T09:48:58.657Z,7.67
2018-09-03T09:51:02.936Z,9.77
2018-09-03T09:53:07.154Z,9.63
2018-09-03T09:55:11.376Z,9.37
2018-09-03T09:57:15.658Z,10.10
2018-09-03T09:59:19.830Z,10.67
2018-09-03T10:01:29.195Z,8.97
2018-09-03T10:03:33.925Z,10.43
2018-09-03T10:05:38.200Z,9.80
2018-09-03T10:07:42.383Z,10.13
2018-09-03T10:09:46.674Z,9.00
2018-09-03T10:11:50.870Z,8.40
2018-09-03T10:13:55.197Z,9.60
2018-09-03T10:15:59.446Z,8.73
2018-09-03T10:18:03.638Z,10.17
2018-09-03T10:20:07.957Z,10.17
2018-09-03T10:22:12.134Z,8.67
2018-09-03T10:24:16.321Z,4.77
2018-09-03T10:26:20.663Z,9.87
2018-09-03T10:28:24.830Z,9.33
2018-09-03T10:30:28.966Z,10.03
2018-09-03T10:32:33.346Z,9.60
2018-09-03T10:34:37.880Z,10.07
2018-09-03T10:36:42.140Z,8.70
2018-09-03T10:38:46.434Z,9.37
2018-09-03T10:40:50.615Z,8.97
2018-09-03T10:42:54.854Z,9.83
2018-09-03T10:44:59.117Z,10.80
2018-09-03T10:47:03.330Z,8.67
2018-09-03T10:49:07.498Z,8.67
2018-09-03T10:51:11.716Z,8.90
2018-09-03T10:53:15.878Z,8.53
2018-09-03T10:55:20.056Z,9.27
2018-09-03T10:57:24.231Z,10.23
2018-09-03T10:59:28.454Z,8.70
2018-09-03T11:01:32.699Z,8.97
2018-09-03T11:03:36.874Z,9.23
2018-09-03T11:05:41.097Z,9.87
2018-09-03T11:07:45.259Z,8.83
2018-09-03T11:09:49.451Z,7.90
2018-09-03T11:11:53.718Z,8.30
2018-09-03T11:13:58.035Z,9.27
2018-09-03T11:16:02.216Z,8.77
2018-09-03T11:18:06.489Z,8.20
2018-09-03T11:20:14.170Z,8.90
2018-09-03T11:22:18.411Z,11.90
2018-09-03T11:24:22.518Z,8.07
2018-09-03T11:26:26.658Z,10.93
2018-09-03T11:28:30.833Z,10.23
2018-09-03T11:30:35.101Z,8.90
2018-09-03T11:32:39.393Z,10.90
2018-09-03T11:34:43.706Z,12.07
2018-09-03T11:36:48.162Z,11.07
2018-09-03T11:38:52.363Z,11.70
2018-09-03T11:40:57.004Z,9.53
2018-09-03T11:43:01.158Z,9.10
2018-09-03T11:45:05.427Z,11.00
2018-09-03T11:47:09.685Z,11.17
2018-09-03T11:49:13.970Z,8.57
2018-09-03T11:51:18.214Z,9.70
2018-09-03T11:53:22.467Z,11.23
2018-09-03T11:55:26.741Z,8.50
2018-09-03T11:57:31.070Z,10.97
2018-09-03T11:59:35.500Z,10.60
2018-09-03T12:01:39.781Z,10.63
2018-09-03T12:03:44.052Z,9.90
2018-09-03T12:05:48.326Z,10.33
2018-09-03T12:07:52.594Z,9.93
2018-09-03T12:09:56.868Z,10.77
2018-09-03T12:12:01.017Z,11.40
2018-09-03T12:14:09.366Z,10.30
2018-09-03T12:16:15.483Z,12.37
2018-09-03T12:18:19.650Z,11.67
2018-09-03T12:20:23.867Z,12.50
2018-09-03T12:22:28.078Z,10.30
2018-09-03T12:24:32.254Z,10.77
2018-09-03T12:26:36.430Z,10.97
2018-09-03T12:28:40.657Z,11.30
2018-09-03T12:30:44.782Z,11.10
2018-09-03T12:32:49.048Z,11.40
2018-09-03T12:34:53.256Z,12.97
2018-09-03T12:36:57.856Z,10.03
2018-09-03T12:39:02.147Z,11.77
2018-09-03T12:41:07.103Z,11.97
2018-09-03T12:43:11.306Z,11.97
2018-09-03T12:45:15.508Z,11.00
2018-09-03T12:47:19.752Z,11.90
2018-09-03T12:49:24.046Z,11.00
2018-09-03T12:51:28.166Z,13.07
2018-09-03T12:53:32.777Z,12.03
2018-09-03T12:55:36.991Z,11.07
2018-09-03T12:57:41.171Z,11.33
2018-09-03T12:59:45.389Z,11.57
2018-09-03T13:01:49.541Z,12.17
2018-09-03T13:03:53.731Z,10.27
2018-09-03T13:05:57.954Z,10.90
2018-09-03T13:08:02.117Z,10.43
2018-09-03T13:10:07.282Z,12.20
2018-09-03T13:12:11.655Z,13.07
2018-09-03T13:14:15.906Z,10.67
2018-09-03T13:16:20.329Z,11.90
2018-09-03T13:18:24.555Z,11.53
2018-09-03T13:20:28.747Z,11.40
2018-09-03T13:22:32.908Z,11.90
2018-09-03T13:24:37.185Z,11.00
2018-09-03T13:26:41.482Z,10.90
2018-09-03T13:28:45.710Z,11.23
2018-09-03T13:30:49.996Z,12.23
2018-09-03T13:32:54.116Z,10.37
2018-09-03T13:34:58.270Z,11.27
2018-09-03T13:37:02.445Z,10.40
2018-09-03T13:39:08.995Z,11.13
2018-09-03T13:41:13.263Z,12.30
2018-09-03T13:43:17.424Z,12.13
2018-09-03T13:45:21.650Z,12.00
2018-09-03T13:47:26.251Z,9.07
2018-09-03T13:49:30.502Z,10.37
2018-09-03T13:51:34.675Z,11.80
2018-09-03T13:53:38.853Z,11.50
2018-09-03T13:55:43.045Z,12.13
2018-09-03T13:57:47.240Z,11.83
2018-09-03T13:59:51.435Z,10.80
2018-09-03T14:01:55.645Z,12.07
2018-09-03T14:03:59.837Z,12.30
2018-09-03T14:06:04.187Z,12.90
2018-09-03T14:08:08.440Z,12.70
2018-09-03T14:10:12.713Z,11.30
2018-09-03T14:12:16.943Z,10.80
2018-09-03T14:14:21.083Z,10.93
2018-09-03T14:16:25.271Z,10.67
2018-09-03T14:18:29.519Z,11.97
2018-09-03T14:20:33.810Z,12.33
2018-09-03T14:22:38.092Z,12.80
2018-09-03T14:24:42.285Z,12.00
2018-09-03T14:26:46.634Z,12.07
2018-09-03T14:28:51.330Z,10.97
2018-09-03T14:30:55.512Z,12.87
2018-09-03T14:32:59.806Z,11.73
2018-09-03T14:35:04.049Z,11.67
2018-09-03T14:37:08.650Z,12.40
2018-09-03T14:39:13.273Z,13.13
2018-09-03T14:41:17.454Z,11.67
2018-09-03T14:43:21.672Z,12.00
2018-09-03T14:45:26.111Z,12.43
2018-09-03T14:47:30.175Z,11.60
2018-09-03T14:49:34.456Z,12.57
2018-09-03T14:51:38.666Z,11.30
2018-09-03T14:53:43.060Z,11.20
2018-09-03T14:55:47.315Z,12.37
2018-09-03T14:57:51.446Z,10.77
2018-09-03T14:59:55.665Z,12.17
2018-09-03T15:01:59.836Z,12.27
2018-09-03T15:04:04.070Z,10.60
2018-09-03T15:06:08.311Z,10.23
2018-09-03T15:08:12.607Z,10.67
2018-09-03T15:10:16.916Z,12.30
2018-09-03T15:12:21.491Z,12.90
2018-09-03T15:14:25.657Z,10.97
2018-09-03T15:16:32.562Z,10.93
2018-09-03T15:18:36.769Z,11.90
2018-09-03T15:20:41.100Z,13.40
2018-09-03T15:22:45.181Z,11.93
2018-09-03T15:24:49.439Z,12.23
2018-09-03T15:26:53.655Z,13.27
2018-09-03T15:28:57.905Z,12.13
2018-09-03T15:31:02.146Z,12.17
2018-09-03T15:33:06.546Z,11.27
2018-09-03T15:35:10.739Z,10.80
2018-09-03T15:37:14.898Z,10.10
2018-09-03T15:39:19.054Z,11.30
2018-09-03T15:41:23.302Z,10.77
2018-09-03T15:43:27.559Z,11.20
2018-09-03T15:45:31.690Z,10.97
2018-09-03T15:47:36.029Z,10.30
2018-09-03T15:49:40.238Z,10.80
2018-09-03T15:51:44.442Z,10.50
2018-09-03T15:53:48.667Z,10.50
2018-09-03T15:55:52.925Z,9.97
2018-09-03T15:57:57.487Z,9.73
2018-09-03T16:00:01.679Z,10.87
2018-09-03T16:02:05.920Z,11.37
2018-09-03T16:04:10.061Z,11.60
2018-09-03T16:06:15.201Z,11.00
2018-09-03T16:08:19.389Z,11.80
2018-09-03T16:10:23.564Z,11.40
2018-09-03T16:12:27.914Z,10.50
2018-09-03T16:14:32.518Z,9.97
2018-09-03T16:16:36.868Z,10.43
2018-09-03T16:18:41.066Z,11.03
2018-09-03T16:20:45.362Z,11.07
2018-09-03T16:22:49.590Z,9.53
2018-09-03T16:24:53.796Z,10.20
2018-09-03T16:26:57.990Z,10.83
2018-09-03T16:29:02.187Z,10.80
2018-09-03T16:31:06.466Z,10.13
2018-09-03T16:33:10.655Z,10.37
2018-09-03T16:35:14.831Z,11.20
2018-09-03T16:37:19.107Z,10.27
2018-09-03T16:39:23.370Z,9.80
2018-09-03T16:41:27.590Z,11.40
2018-09-03T16:43:31.803Z,9.63
2018-09-03T16:45:35.975Z,9.67
2018-09-03T16:47:40.236Z,9.80
2018-09-03T16:49:44.450Z,9.97
2018-09-03T16:51:48.647Z,10.60
2018-09-03T16:53:52.851Z,11.00
2018-09-03T16:55:57.030Z,9.87
2018-09-03T16:58:01.245Z,10.33
2018-09-03T17:00:06.450Z,11.10
2018-09-03T17:02:10.698Z,9.67
2018-09-03T17:04:14.911Z,10.50
2018-09-03T17:06:19.168Z,11.00
2018-09-03T17:08:23.435Z,10.63
2018-09-03T17:10:27.545Z,11.10
2018-09-03T17:12:31.823Z,10.63
2018-09-03T17:14:35.964Z,10.27
2018-09-03T17:16:40.602Z,11.27
2018-09-03T17:18:44.782Z,9.90
2018-09-03T17:20:49.048Z,11.43
2018-09-03T17:22:53.239Z,11.53
2018-09-03T17:24:57.754Z,11.43
2018-09-03T17:27:02.010Z,11.37
2018-09-03T17:29:06.288Z,12.23
2018-09-03T17:31:13.077Z,10.80
2018-09-03T17:33:17.251Z,11.00
2018-09-03T17:35:21.442Z,10.83
2018-09-03T17:37:25.650Z,9.57
2018-09-03T17:39:30.283Z,10.57
2018-09-03T17:41:34.478Z,11.27
2018-09-03T17:43:38.726Z,10.83
2018-09-03T17:45:42.957Z,10.73
2018-09-03T17:47:47.127Z,11.40
2018-09-03T17:49:51.324Z,10.00
2018-09-03T17:51:55.551Z,10.23
2018-09-03T17:53:59.759Z,10.57
2018-09-03T17:56:03.863Z,10.20
2018-09-03T17:58:08.068Z,11.10
2018-09-03T18:00:12.390Z,10.83
2018-09-03T18:02:16.693Z,10.50
2018-09-03T18:04:20.881Z,10.07
2018-09-03T18:06:25.160Z,11.37
2018-09-03T18:08:29.464Z,10.80
2018-09-03T18:10:33.672Z,10.80
2018-09-03T18:12:37.894Z,11.10
2018-09-03T18:14:42.835Z,10.90
2018-09-03T18:16:47.105Z,11.57
2018-09-03T18:18:51.629Z,10.60
2018-09-03T18:20:55.795Z,10.83
2018-09-03T18:23:00.492Z,10.07
2018-09-03T18:25:04.756Z,9.17
2018-09-03T18:27:08.956Z,10.20
2018-09-03T18:29:13.278Z,9.67
2018-09-03T18:31:17.558Z,9.80
2018-09-03T18:33:21.983Z,10.47
2018-09-03T18:35:26.226Z,10.40
2018-09-03T18:37:30.435Z,9.07
2018-09-03T18:39:34.762Z,9.13
2018-09-03T18:41:38.994Z,10.17
2018-09-03T18:43:43.279Z,10.30
2018-09-03T18:45:47.466Z,10.53
2018-09-03T18:47:51.651Z,9.53
2018-09-03T18:49:55.855Z,9.10
2018-09-03T18:52:00.082Z,9.27
2018-09-03T18:54:04.814Z,9.60
2018-09-03T18:56:09.026Z,9.77
2018-09-03T18:58:13.978Z,9.70
2018-09-03T19:00:18.195Z,9.07
2018-09-03T19:02:22.596Z,9.07
2018-09-03T19:04:26.895Z,10.43
2018-09-03T19:06:31.068Z,8.67
2018-09-03T19:08:35.349Z,11.03
2018-09-03T19:10:39.556Z,10.73
2018-09-03T19:12:43.738Z,9.83
2018-09-03T19:14:47.979Z,9.03
2018-09-03T19:16:52.133Z,10.97
2018-09-03T19:18:56.474Z,10.90
2018-09-03T19:21:00.682Z,11.50
2018-09-03T19:23:04.833Z,11.53
2018-09-03T19:25:08.963Z,11.43
2018-09-03T19:27:13.242Z,11.33
2018-09-03T19:29:17.448Z,10.93
2018-09-03T19:31:21.626Z,12.93
2018-09-03T19:33:26.198Z,11.90
2018-09-03T19:35:31.277Z,11.37
2018-09-03T19:37:35.611Z,11.67
2018-09-03T19:39:41.020Z,11.43
2018-09-03T19:41:45.699Z,11.83
2018-09-03T19:43:50.306Z,11.67
2018-09-03T19:45:55.827Z,11.27
2018-09-03T19:48:00.715Z,12.60
2018-09-03T19:50:05.651Z,12.90
2018-09-03T19:52:10.357Z,11.67
2018-09-03T19:54:14.985Z,12.67
2018-09-03T19:56:20.436Z,12.97
2018-09-03T19:58:26.157Z,12.77
2018-09-03T20:00:32.497Z,12.27
2018-09-03T20:02:36.966Z,12.67
2018-09-03T20:04:41.958Z,13.30
2018-09-03T20:06:46.395Z,13.20
2018-09-03T20:08:50.637Z,13.27
2018-09-03T20:10:55.430Z,13.97
2018-09-03T20:13:00.335Z,12.90
2018-09-03T20:15:04.784Z,13.33
2018-09-03T20:17:09.037Z,13.13
2018-09-03T20:19:16.496Z,12.73
2018-09-03T20:21:20.761Z,13.63
2018-09-03T20:23:32.437Z,14.50
2018-09-03T20:25:37.287Z,13.47
2018-09-03T20:27:41.839Z,12.80
2018-09-03T20:29:46.460Z,14.13
2018-09-03T20:31:50.960Z,13.43
2018-09-03T20:33:56.095Z,14.00
2018-09-03T20:36:01.673Z,13.47
2018-09-03T20:38:05.982Z,14.27
2018-09-03T20:40:10.809Z,13.40
2018-09-03T20:42:15.311Z,13.93
2018-09-03T20:44:19.603Z,14.13
2018-09-03T20:46:23.881Z,13.37
2018-09-03T20:48:29.139Z,13.90
2018-09-03T20:50:34.182Z,14.23
2018-09-03T20:52:38.828Z,14.70
2018-09-03T20:54:43.738Z,15.03
2018-09-03T20:56:48.458Z,13.63
2018-09-03T20:58:53.151Z,13.40
2018-09-03T21:00:59.199Z,13.90
2018-09-03T21:03:03.413Z,14.73
2018-09-03T21:05:08.074Z,14.33
2018-09-03T21:07:19.269Z,12.83
2018-09-03T21:09:23.763Z,13.73
2018-09-03T21:11:28.081Z,13.60
2018-09-03T21:13:32.986Z,14.33
2018-09-03T21:15:37.787Z,13.93
2018-09-03T21:17:41.998Z,11.77
2018-09-03T21:19:47.242Z,13.47
2018-09-03T21:21:53.235Z,12.70
2018-09-03T21:23:57.738Z,12.57
2018-09-03T21:26:02.436Z,12.67
2018-09-03T21:28:06.919Z,12.93
2018-09-03T21:30:11.517Z,13.30
2018-09-03T21:32:16.137Z,14.20
2018-09-03T21:34:20.768Z,12.97
2018-09-03T21:36:25.468Z,13.60
2018-09-03T21:38:30.302Z,11.67
2018-09-03T21:40:34.902Z,13.03
2018-09-03T21:42:39.560Z,12.33
2018-09-03T21:44:44.455Z,13.10
2018-09-03T21:46:48.678Z,12.83
2018-09-03T21:48:52.854Z,12.07
2018-09-03T21:50:57.030Z,11.80
2018-09-03T21:53:01.196Z,12.90
2018-09-03T21:59:33.950Z,11.20
2018-09-03T22:01:38.887Z,11.87
2018-09-03T22:03:44.324Z,11.87
2018-09-03T22:05:48.709Z,11.50
2018-09-03T22:07:52.969Z,11.73
2018-09-03T22:09:57.377Z,11.90
2018-09-03T22:12:01.687Z,11.93
2018-09-03T22:14:05.914Z,11.23
2018-09-03T22:16:10.305Z,10.60
2018-09-03T22:18:14.400Z,11.17
2018-09-03T22:20:18.563Z,11.27
2018-09-03T22:22:23.106Z,11.10
2018-09-03T22:24:27.793Z,11.37
2018-09-03T22:26:32.244Z,10.93
2018-09-03T22:28:36.652Z,11.93
2018-09-03T22:30:41.595Z,11.43
2018-09-03T22:32:47.065Z,10.77
2018-09-03T22:34:51.663Z,12.47
2018-09-03T22:36:56.421Z,12.23
2018-09-03T22:39:00.977Z,11.23
2018-09-03T22:41:05.850Z,11.57
2018-09-03T22:43:10.411Z,11.27
2018-09-03T22:45:14.764Z,12.07
2018-09-03T22:47:20.344Z,11.73
2018-09-03T22:49:24.966Z,11.70
2018-09-03T22:51:30.096Z,10.83
2018-09-03T22:53:35.490Z,11.00
2018-09-03T22:55:40.819Z,9.67
2018-09-03T22:57:45.414Z,9.47
2018-09-03T22:59:49.879Z,11.10
2018-09-03T23:01:54.795Z,10.67
2018-09-03T23:03:59.559Z,11.43
2018-09-03T23:06:05.183Z,10.33
2018-09-03T23:08:10.109Z,10.70
2018-09-03T23:10:14.994Z,10.13
2018-09-03T23:12:20.963Z,11.20
2018-09-03T23:14:26.183Z,9.63
2018-09-03T23:16:30.889Z,9.70
2018-09-03T23:18:35.100Z,9.13
2018-09-03T23:20:39.354Z,9.57
2018-09-03T23:22:44.039Z,10.17
2018-09-03T23:24:48.581Z,11.10
2018-09-03T23:26:53.546Z,10.67
2018-09-03T23:28:58.250Z,10.10
2018-09-03T23:31:02.945Z,11.77
2018-09-03T23:33:07.482Z,11.40
2018-09-03T23:35:12.201Z,9.80
2018-09-03T23:37:16.649Z,9.20
2018-09-03T23:39:22.999Z,11.23
2018-09-03T23:41:27.304Z,11.80
2018-09-03T23:43:31.951Z,11.13
2018-09-03T23:45:36.508Z,10.60
2018-09-03T23:47:41.203Z,11.10
2018-09-03T23:49:45.365Z,10.00
2018-09-03T23:51:50.596Z,9.93
2018-09-03T23:53:55.303Z,10.20
2018-09-03T23:55:59.590Z,10.77
2018-09-03T23:58:04.386Z,9.73
